Time;durP1;ratioP1;P1;durP2;ratioP2;P2;SDS_P1;SDS_P2;PMS_P1;PMS_P2;Temp;Humidity;BMP_temperature;BMP_pressure;BME280_temperature;BME280_humidity;BME280_pressure;Samples;Min_cycle;Max_cycle;Signal;HPM_P1;HPM_P2
2021/01/31 05:03:28;;;;;;;12.93;6.68;;;;;;;-4.97;77.19;99040.91;4975431;28;20135;-59
2021/01/31 05:06:11;;;;;;;15.10;7.28;;;;;;;-4.93;76.81;99042.22;4952332;28;20276;-60
2021/01/31 05:08:37;;;;;;;15.55;7.18;;;;;;;-4.99;76.63;99042.84;4953037;28;20046;-59
2021/01/31 05:11:28;;;;;;;14.95;7.68;;;;;;;-5.12;75.30;99043.19;4935623;29;20036;-58
2021/01/31 05:14:35;;;;;;;11.63;7.10;;;;;;;-5.05;74.46;99049.53;4931317;29;20038;-58
2021/01/31 05:17:03;;;;;;;16.13;6.82;;;;;;;-5.12;76.15;99045.84;4928113;29;20043;-58
2021/01/31 05:19:32;;;;;;;13.50;6.20;;;;;;;-5.24;74.73;99037.31;4931360;29;20039;-60
2021/01/31 05:21:59;;;;;;;14.30;7.18;;;;;;;-5.08;76.71;99049.00;4912087;29;20070;-58
2021/01/31 05:24:26;;;;;;;15.13;7.50;;;;;;;-5.00;77.08;99049.91;4929963;29;20134;-58
2021/01/31 05:26:58;;;;;;;16.33;6.95;;;;;;;-5.31;75.17;99059.97;4930525;29;20047;-57
2021/01/31 05:29:33;;;;;;;;;;;;;;;-5.40;77.02;99059.97;4929962;29;20412;-58
2021/01/31 05:32:08;;;;;;;13.88;6.57;;;;;;;-5.50;75.48;99062.66;4905238;29;19942;-57
2021/01/31 05:34:36;;;;;;;15.50;7.55;;;;;;;-5.35;76.06;99060.38;4927927;29;20412;-58
2021/01/31 05:37:08;;;;;;;12.50;6.90;;;;;;;-5.30;77.27;99071.28;4909253;29;20588;-61
2021/01/31 05:39:40;;;;;;;13.30;6.85;;;;;;;-5.50;76.18;99060.88;4927184;29;20143;-60
2021/01/31 05:42:22;;;;;;;16.92;7.32;;;;;;;-5.46;75.48;99066.69;4928343;29;20074;-58
2021/01/31 05:44:57;;;;;;;10.25;5.47;;;;;;;-5.58;75.71;99068.66;4909884;29;20413;-58
2021/01/31 05:47:26;;;;;;;15.02;7.35;;;;;;;-5.61;76.98;99086.53;4912830;29;20047;-59
2021/01/31 05:49:53;;;;;;;13.73;7.03;;;;;;;-5.75;76.88;99079.94;4926963;29;20481;-59
2021/01/31 05:52:22;;;;;;;14.73;8.27;;;;;;;-5.63;75.98;99085.84;4943717;28;20441;-59
2021/01/31 05:54:50;;;;;;;13.52;7.20;;;;;;;-5.54;75.49;99083.19;4925958;29;20131;-58
2021/01/31 05:57:27;;;;;;;13.88;6.85;;;;;;;-5.55;76.39;99076.28;4913701;29;20046;-58
2021/01/31 05:59:52;;;;;;;11.30;6.07;;;;;;;-5.81;74.97;99082.31;4928109;29;20039;-58
2021/01/31 06:02:32;;;;;;;12.88;7.00;;;;;;;-5.70;76.05;99085.63;4913778;29;20386;-58
2021/01/31 06:05:22;;;;;;;15.77;7.03;;;;;;;-5.74;75.31;99092.13;4913541;29;20134;-59
2021/01/31 06:08:03;;;;;;;14.50;6.88;;;;;;;-5.86;75.91;99093.28;4927506;29;20043;-58
2021/01/31 06:10:30;;;;;;;14.25;7.93;;;;;;;-5.77;75.35;99102.13;4944230;28;20058;-61
2021/01/31 06:13:10;;;;;;;15.60;6.32;;;;;;;-5.85;74.99;99105.47;4910316;29;20052;-59
2021/01/31 06:15:45;;;;;;;12.88;6.40;;;;;;;-5.67;75.90;99098.50;4903858;29;20051;-60
2021/01/31 06:18:19;;;;;;;14.77;7.07;;;;;;;-5.67;76.48;99100.28;4914495;29;20530;-60
2021/01/31 06:20:46;;;;;;;12.27;6.53;;;;;;;-5.82;74.84;99094.66;4924805;29;20047;-59
2021/01/31 06:23:26;;;;;;;14.15;7.30;;;;;;;-5.68;75.06;99101.28;4902187;29;20098;-60
2021/01/31 06:25:53;;;;;;;19.63;7.07;;;;;;;-5.62;75.76;99106.78;4915596;29;20319;-58
2021/01/31 06:28:26;;;;;;;11.45;6.68;;;;;;;-5.63;74.77;99097.22;4927197;29;20046;-60
2021/01/31 06:31:11;;;;;;;12.43;6.85;;;;;;;-5.69;75.33;99104.88;4926952;29;20539;-59
2021/01/31 06:33:42;;;;;;;11.93;5.80;;;;;;;-5.70;75.35;99111.94;4944151;29;20047;-59
2021/01/31 06:36:31;;;;;;;10.32;5.90;;;;;;;-5.79;74.10;99112.81;4925885;29;20043;-59
2021/01/31 06:39:15;;;;;;;11.95;6.82;;;;;;;-5.70;75.99;99111.94;4928251;29;20042;-60
2021/01/31 06:42:03;;;;;;;12.93;7.05;;;;;;;-5.88;74.73;99109.19;4924723;29;20043;-59
2021/01/31 06:44:32;;;;;;;9.27;5.20;;;;;;;-5.92;74.27;99101.78;4928599;29;20536;-59
2021/01/31 06:47:09;;;;;;;12.73;6.78;;;;;;;-5.68;74.38;99112.63;4910854;29;20589;-59
2021/01/31 06:49:57;;;;;;;9.07;4.85;;;;;;;-5.38;76.32;99108.91;4923502;29;20067;-60
2021/01/31 06:52:42;;;;;;;11.32;5.32;;;;;;;-5.26;75.56;99110.38;4911469;29;20524;-60
2021/01/31 06:55:23;;;;;;;11.95;5.20;;;;;;;-5.23;74.79;99110.09;4928933;29;20055;-59
2021/01/31 06:58:20;;;;;;;9.40;4.93;;;;;;;-5.10;75.52;99120.31;4927289;29;20039;-59
2021/01/31 07:01:14;;;;;;;11.70;5.38;;;;;;;-5.26;75.32;99115.66;4927556;29;20087;-60
2021/01/31 07:04:06;;;;;;;9.68;5.03;;;;;;;-5.62;75.28;99116.47;4927852;29;20049;-60
2021/01/31 07:06:47;;;;;;;9.82;4.78;;;;;;;-5.70;73.45;99119.84;4911242;29;20111;-60
2021/01/31 07:09:41;;;;;;;7.85;4.93;;;;;;;-5.80;73.91;99120.84;4928721;29;20043;-59
2021/01/31 07:12:31;;;;;;;11.88;5.88;;;;;;;-5.89;75.33;99122.56;4912833;29;20066;-60
2021/01/31 07:14:59;;;;;;;12.10;6.00;;;;;;;-5.95;75.49;99120.47;4924052;29;20403;-60
2021/01/31 07:17:34;;;;;;;10.43;5.70;;;;;;;-6.07;75.35;99132.94;4911030;28;20039;-59
2021/01/31 07:20:07;;;;;;;10.95;5.47;;;;;;;-6.14;74.78;99142.38;4926798;29;20408;-58
2021/01/31 07:22:52;;;;;;;13.70;6.82;;;;;;;-6.03;75.88;99130.88;4915615;28;20125;-57
2021/01/31 07:25:23;;;;;;;9.32;5.40;;;;;;;-5.98;74.41;99120.75;4920673;29;20036;-58
2021/01/31 07:28:05;;;;;;;11.13;6.15;;;;;;;-5.88;76.39;99121.56;4921114;28;20747;-57
2021/01/31 07:30:59;;;;;;;11.25;5.75;;;;;;;-5.84;74.72;99117.66;4950162;28;20518;-57
2021/01/31 07:33:35;;;;;;;13.30;6.22;;;;;;;-5.66;75.28;99125.66;4921851;28;20035;-58
2021/01/31 07:36:11;;;;;;;13.85;6.90;;;;;;;-5.52;76.07;99126.00;4924377;29;20046;-57
2021/01/31 07:38:46;;;;;;;12.68;6.47;;;;;;;-5.56;75.43;99122.00;4908738;29;20505;-58
2021/01/31 07:41:14;;;;;;;17.58;6.95;;;;;;;-5.54;75.37;99121.88;4918286;29;20096;-60
2021/01/31 07:43:41;;;;;;;12.80;6.55;;;;;;;-5.41;75.80;99119.72;4906510;29;20048;-58
2021/01/31 07:46:10;;;;;;;12.02;6.28;;;;;;;-5.40;75.26;99121.38;4921497;29;20115;-59
2021/01/31 07:48:44;;;;;;;13.15;6.38;;;;;;;-4.94;76.44;99125.75;4909344;29;20047;-59
2021/01/31 07:51:19;;;;;;;11.73;6.32;;;;;;;-4.94;75.61;99120.47;4903991;29;20406;-58
2021/01/31 07:53:46;;;;;;;9.43;5.63;;;;;;;-4.77;75.60;99124.13;4917121;29;20077;-59
2021/01/31 07:56:26;;;;;;;13.20;6.13;;;;;;;-4.64;75.01;99116.69;4905440;29;20052;-59
2021/01/31 07:58:54;;;;;;;16.73;7.32;;;;;;;-4.62;75.10;99124.47;4909595;29;20035;-58
2021/01/31 08:01:39;;;;;;;13.90;7.68;;;;;;;-4.47;74.40;99126.41;4924124;28;20523;-59
2021/01/31 08:04:19;;;;;;;15.90;7.10;;;;;;;-4.44;74.57;99123.47;4924595;29;20509;-58
2021/01/31 08:06:48;;;;;;;13.60;7.43;;;;;;;-4.33;73.91;99124.22;4946310;28;20102;-58
2021/01/31 08:09:26;;;;;;;18.48;9.00;;;;;;;-4.23;73.88;99123.16;4930788;28;20082;-59
2021/01/31 08:12:08;;;;;;;14.70;7.60;;;;;;;-4.30;73.48;99129.22;4931799;29;20070;-59
2021/01/31 08:14:52;;;;;;;;;;;;;;;-4.20;74.23;99128.16;4915640;29;20051;-58
2021/01/31 08:17:39;;;;;;;14.73;6.28;;;;;;;-4.03;73.34;99123.81;4903920;29;19959;-59
2021/01/31 08:20:17;;;;;;;11.98;6.75;;;;;;;-3.99;73.21;99111.97;4903089;29;20130;-59
2021/01/31 08:22:44;;;;;;;14.90;7.40;;;;;;;-3.71;73.12;99118.81;4928187;29;20038;-58
2021/01/31 08:25:12;;;;;;;14.50;7.45;;;;;;;-3.68;72.09;99112.34;4916525;29;20052;-58
2021/01/31 08:27:41;;;;;;;14.90;7.45;;;;;;;-3.70;72.52;99109.06;4910497;29;20050;-58
2021/01/31 08:30:31;;;;;;;14.40;7.95;;;;;;;-3.71;72.59;99105.59;4917496;29;20051;-59
2021/01/31 08:33:03;;;;;;;13.35;7.00;;;;;;;-3.71;73.11;99102.13;4937740;28;20042;-59
2021/01/31 08:35:29;;;;;;;13.95;7.18;;;;;;;-3.46;73.10;99089.88;4938312;29;20040;-59
2021/01/31 08:38:16;;;;;;;16.27;8.13;;;;;;;-3.52;72.48;99099.25;4912703;29;20067;-59
2021/01/31 08:41:05;;;;;;;14.45;8.07;;;;;;;-3.52;72.13;99101.91;4944692;28;20548;-59
2021/01/31 08:43:44;;;;;;;14.88;7.90;;;;;;;-3.52;72.03;99103.72;4898095;29;20542;-58
2021/01/31 08:46:15;;;;;;;12.30;6.25;;;;;;;-3.54;73.44;99100.38;4914177;29;20055;-58
2021/01/31 08:49:03;;;;;;;11.18;5.88;;;;;;;-3.54;73.42;99103.03;4931188;29;20047;-58
2021/01/31 08:51:35;;;;;;;12.82;6.35;;;;;;;-3.43;72.64;99093.03;4906391;29;20055;-58
2021/01/31 08:54:14;;;;;;;13.90;7.47;;;;;;;-3.36;72.47;99093.25;4929988;29;20043;-57
2021/01/31 08:56:49;;;;;;;13.35;6.40;;;;;;;-3.23;72.01;99101.53;4937563;29;20124;-57
2021/01/31 08:59:23;;;;;;;13.15;6.45;;;;;;;-3.56;72.63;99107.63;4912790;29;20051;-58
2021/01/31 09:02:11;;;;;;;11.10;6.32;;;;;;;-3.44;72.60;99107.22;4942456;29;20067;-58
2021/01/31 09:04:39;;;;;;;14.90;6.72;;;;;;;-3.52;72.24;99101.06;4892671;29;20143;-59
2021/01/31 09:07:05;;;;;;;13.18;7.10;;;;;;;-3.48;72.47;99099.78;4915671;29;20058;-59
2021/01/31 09:09:36;;;;;;;13.00;6.80;;;;;;;-3.35;71.78;99101.00;4903825;29;20075;-58
2021/01/31 09:12:04;;;;;;;;;;;;;;;-3.15;71.61;99100.75;4915569;29;20217;-58
2021/01/31 09:14:33;;;;;;;17.48;7.55;;;;;;;-3.28;71.34;99102.03;4914708;29;19919;-58
2021/01/31 09:17:08;;;;;;;15.68;7.40;;;;;;;-3.30;71.76;99095.22;4931611;29;20134;-58
2021/01/31 09:19:34;;;;;;;13.00;7.78;;;;;;;-3.40;71.61;99095.34;4945714;29;20127;-58
2021/01/31 09:22:05;;;;;;;17.00;8.40;;;;;;;-3.23;71.32;99092.81;4940988;28;21399;-57
2021/01/31 09:24:36;;;;;;;17.45;8.10;;;;;;;-3.19;71.44;99089.66;4930328;29;20552;-59
2021/01/31 09:27:03;;;;;;;12.77;6.78;;;;;;;-3.08;70.89;99091.19;4931151;29;20043;-60
2021/01/31 09:29:30;;;;;;;15.85;7.20;;;;;;;-3.01;71.39;99101.00;4930466;29;20510;-59
2021/01/31 09:32:01;;;;;;;14.38;7.68;;;;;;;-2.83;71.95;99102.69;4930802;29;20047;-59
2021/01/31 09:34:28;;;;;;;;;;;;;;;-2.86;70.47;99100.34;4915404;29;20114;-58
2021/01/31 09:37:20;;;;;;;13.15;7.32;;;;;;;-2.72;70.92;99099.72;4946796;29;19977;-58
2021/01/31 09:39:46;;;;;;;14.32;7.10;;;;;;;-2.52;71.21;99095.81;4925062;29;20036;-59
2021/01/31 09:42:12;;;;;;;15.07;7.18;;;;;;;-2.45;69.02;99102.13;4920378;29;20051;-58
2021/01/31 09:44:43;;;;;;;12.50;7.15;;;;;;;-2.34;70.70;99100.97;4911245;29;20055;-59
2021/01/31 09:47:09;;;;;;;17.85;7.70;;;;;;;-2.34;70.16;99090.38;4914116;29;20517;-59
2021/01/31 09:49:35;;;;;;;14.73;7.50;;;;;;;-2.21;71.45;99101.31;4928705;29;20047;-59
2021/01/31 09:52:06;;;;;;;13.05;5.90;;;;;;;-2.16;70.26;99095.50;4930222;29;20097;-60
2021/01/31 09:54:34;;;;;;;12.63;6.65;;;;;;;-2.16;70.08;99096.34;4928297;29;20399;-59
2021/01/31 09:57:03;;;;;;;13.32;7.72;;;;;;;-2.32;69.67;99099.00;4930592;29;20070;-60
2021/01/31 09:59:37;;;;;;;13.85;8.15;;;;;;;-2.32;69.37;99091.88;4930353;29;20472;-58
2021/01/31 10:02:15;;;;;;;12.82;7.47;;;;;;;-1.96;71.69;99087.06;4927717;29;20043;-59
2021/01/31 10:04:43;;;;;;;14.43;7.85;;;;;;;-1.88;70.40;99087.06;4930474;29;20043;-59
2021/01/31 10:07:21;;;;;;;13.20;7.30;;;;;;;-1.81;68.82;99081.91;4928733;29;20409;-57
2021/01/31 10:09:50;;;;;;;14.93;8.27;;;;;;;-1.79;69.12;99079.09;4910251;29;20099;-58
2021/01/31 10:12:28;;;;;;;17.30;8.80;;;;;;;-2.03;68.33;99077.31;4947393;28;20093;-59
2021/01/31 10:15:01;;;;;;;15.05;7.63;;;;;;;-1.80;70.15;99080.09;4930889;28;20425;-59
2021/01/31 10:17:45;;;;;;;15.18;7.60;;;;;;;-1.89;69.15;99076.63;4936231;29;20043;-59
2021/01/31 10:20:35;;;;;;;16.17;8.35;;;;;;;-2.05;69.83;99074.00;4924885;29;20142;-59
2021/01/31 10:23:13;;;;;;;18.55;8.05;;;;;;;-1.88;69.25;99081.78;4944013;29;20102;-58
2021/01/31 10:25:42;;;;;;;17.13;8.32;;;;;;;-1.85;69.49;99075.31;4945511;29;20126;-58
2021/01/31 10:28:13;;;;;;;17.23;7.93;;;;;;;-1.83;68.89;99074.13;4944719;29;20462;-60
2021/01/31 10:30:44;;;;;;;16.90;8.18;;;;;;;-1.76;69.06;99076.94;4928148;29;20461;-58
2021/01/31 10:33:46;;;;;;;14.05;7.85;;;;;;;-1.62;69.84;99070.97;4927197;29;20498;-58
2021/01/31 10:36:31;;;;;;;21.45;8.95;;;;;;;-1.64;68.36;99062.34;4938408;28;20043;-58
2021/01/31 10:39:17;;;;;;;19.88;9.07;;;;;;;-1.50;69.25;99063.47;4930689;28;20038;-59
2021/01/31 10:41:46;;;;;;;17.42;8.07;;;;;;;-1.50;68.53;99058.19;4946814;28;20684;-59
2021/01/31 10:44:29;;;;;;;15.90;7.90;;;;;;;-1.46;68.65;99055.00;4930031;28;20047;-58
2021/01/31 10:46:55;;;;;;;16.67;8.20;;;;;;;-1.30;68.63;99054.13;4942020;29;20047;-59
2021/01/31 10:49:22;;;;;;;17.67;8.35;;;;;;;-1.33;68.52;99043.84;4913308;29;20049;-58
2021/01/31 10:51:48;;;;;;;16.33;8.30;;;;;;;-1.14;69.68;99050.56;4928774;29;20054;-59
2021/01/31 10:54:16;;;;;;;19.98;8.02;;;;;;;-1.03;68.32;99036.91;4913800;29;20039;-61
2021/01/31 10:56:42;;;;;;;23.42;9.35;;;;;;;-1.02;67.83;99048.34;4929891;29;20046;-58
2021/01/31 10:59:08;;;;;;;16.92;7.38;;;;;;;-0.95;67.25;99046.69;4944214;29;20047;-59
2021/01/31 11:01:35;;;;;;;15.77;8.75;;;;;;;-0.88;67.49;99044.97;4941655;29;20051;-58
2021/01/31 11:04:01;;;;;;;14.25;7.65;;;;;;;-0.87;65.76;99046.63;4940655;29;20043;-58
2021/01/31 11:06:27;;;;;;;16.40;8.18;;;;;;;-0.79;67.07;99041.25;4925674;29;20122;-58
2021/01/31 11:08:54;;;;;;;15.93;8.02;;;;;;;-0.82;66.91;99046.94;4913352;29;20496;-59
2021/01/31 11:11:21;;;;;;;14.05;7.70;;;;;;;-0.74;66.59;99036.25;4944092;29;20135;-59
2021/01/31 11:13:48;;;;;;;13.10;7.53;;;;;;;-0.68;67.24;99038.19;4944890;29;20070;-59
2021/01/31 11:16:14;;;;;;;14.50;7.32;;;;;;;-0.71;65.01;99037.75;4934693;29;20568;-59
2021/01/31 11:18:39;;;;;;;13.35;7.30;;;;;;;-0.60;65.53;99040.00;4928321;29;20127;-58
2021/01/31 11:21:06;;;;;;;14.18;7.43;;;;;;;-0.42;65.86;99041.34;4906682;29;20268;-58
2021/01/31 11:23:32;;;;;;;16.08;7.65;;;;;;;-0.28;67.27;99039.75;4928581;28;20518;-58
2021/01/31 11:25:58;;;;;;;13.57;7.25;;;;;;;-0.27;66.01;99027.28;4945950;28;20106;-59
2021/01/31 11:28:24;;;;;;;12.27;7.38;;;;;;;-0.18;65.95;99032.34;4946821;28;20043;-58
2021/01/31 11:30:50;;;;;;;15.18;6.85;;;;;;;-0.14;68.09;99027.50;4931909;28;20043;-58
2021/01/31 11:33:16;;;;;;;14.90;7.45;;;;;;;-0.13;67.26;99023.84;4947502;28;20047;-58
2021/01/31 11:35:41;;;;;;;14.75;7.63;;;;;;;-0.16;64.08;99029.53;4933076;28;20085;-59
2021/01/31 11:38:07;;;;;;;10.85;5.95;;;;;;;-0.04;63.87;99018.28;4964156;28;20449;-59
2021/01/31 11:40:33;;;;;;;13.18;6.38;;;;;;;-0.02;64.05;99023.44;4954615;28;20496;-57
2021/01/31 11:42:59;;;;;;;11.93;5.80;;;;;;;-0.05;62.72;99016.63;4913098;29;20126;-58
2021/01/31 11:45:26;;;;;;;12.13;5.80;;;;;;;0.30;63.79;99016.94;4947360;28;20504;-59
2021/01/31 11:47:52;;;;;;;12.43;6.20;;;;;;;0.60;65.64;99015.94;4927503;29;20572;-59
2021/01/31 11:50:18;;;;;;;13.32;6.07;;;;;;;0.33;62.12;99014.75;4951673;28;20038;-59
2021/01/31 11:52:45;;;;;;;12.48;6.50;;;;;;;0.41;62.45;99016.50;4909955;29;20039;-59
2021/01/31 11:55:12;;;;;;;16.83;7.80;;;;;;;0.15;61.59;99010.78;4917366;29;20051;-58
2021/01/31 11:57:37;;;;;;;11.90;6.85;;;;;;;0.25;62.75;99009.50;4941433;29;20048;-59
2021/01/31 12:00:05;;;;;;;12.73;6.93;;;;;;;0.42;62.68;98998.72;4911039;29;20039;-60
2021/01/31 12:02:38;;;;;;;12.63;6.50;;;;;;;0.58;62.78;99009.13;4930661;29;20043;-59
2021/01/31 12:05:04;;;;;;;14.98;7.18;;;;;;;0.41;62.22;99000.53;4916411;29;20530;-59
2021/01/31 12:07:30;;;;;;;19.08;7.50;;;;;;;0.29;60.87;99007.31;4915741;29;20071;-58
2021/01/31 12:09:55;;;;;;;15.68;7.25;;;;;;;0.32;62.77;98996.34;4948633;28;20086;-58
2021/01/31 12:12:21;;;;;;;11.80;7.18;;;;;;;0.35;61.12;98995.94;4916616;29;20062;-57
2021/01/31 12:14:47;;;;;;;16.20;8.68;;;;;;;0.36;62.86;98998.41;4947351;29;20114;-58
2021/01/31 12:17:12;;;;;;;16.38;6.78;;;;;;;0.42;62.83;98996.88;4916943;29;20051;-59
2021/01/31 12:19:38;;;;;;;14.60;6.32;;;;;;;0.64;62.29;98993.28;4931735;29;20063;-58
2021/01/31 12:22:03;;;;;;;14.68;7.57;;;;;;;0.44;61.15;98996.69;4931483;29;20045;-59
2021/01/31 12:24:29;;;;;;;12.80;6.13;;;;;;;0.91;65.96;98994.44;4916169;29;20087;-58
2021/01/31 12:26:55;;;;;;;12.85;6.95;;;;;;;0.70;59.99;98995.19;4915962;29;20389;-60
2021/01/31 12:29:21;;;;;;;14.15;6.47;;;;;;;0.54;59.92;98994.56;4947741;29;20665;-59
2021/01/31 12:31:47;;;;;;;16.58;7.18;;;;;;;0.48;61.32;98992.63;4905217;29;20118;-59
2021/01/31 12:34:14;;;;;;;15.15;7.45;;;;;;;0.41;60.11;98987.25;4930393;29;20758;-60
2021/01/31 12:36:41;;;;;;;14.93;7.07;;;;;;;0.64;61.78;98992.44;4937418;29;20054;-59
2021/01/31 12:39:07;;;;;;;13.77;7.30;;;;;;;0.86;60.49;98986.19;4918204;29;20094;-58
2021/01/31 12:41:33;;;;;;;12.05;6.65;;;;;;;0.71;60.89;98986.19;4920263;29;20043;-59
2021/01/31 12:43:59;;;;;;;14.40;7.00;;;;;;;0.76;59.68;98984.81;4925935;28;20039;-58
2021/01/31 12:46:25;;;;;;;14.48;7.13;;;;;;;0.81;57.38;98975.25;4931249;28;20464;-60
2021/01/31 12:48:51;;;;;;;14.85;6.40;;;;;;;0.82;60.76;98973.41;4921405;28;20067;-60
2021/01/31 12:51:18;;;;;;;13.15;6.65;;;;;;;0.98;58.62;98974.03;4908229;29;20090;-58
2021/01/31 12:53:44;;;;;;;16.42;7.43;;;;;;;0.86;57.47;98972.88;4916860;29;20032;-61
2021/01/31 12:56:11;;;;;;;16.33;7.68;;;;;;;0.76;59.08;98967.03;4902062;29;20043;-58
2021/01/31 12:58:39;;;;;;;14.30;7.60;;;;;;;1.20;66.80;98966.06;4908644;29;20036;-59
2021/01/31 13:01:05;;;;;;;11.77;6.50;;;;;;;1.18;57.98;98965.44;4912974;29;20731;-57
2021/01/31 13:03:31;;;;;;;15.82;7.18;;;;;;;1.20;57.89;98964.22;4917042;29;20085;-58
2021/01/31 13:05:57;;;;;;;12.15;6.32;;;;;;;1.43;56.89;98959.53;4932760;29;20054;-58
2021/01/31 13:08:23;;;;;;;12.88;6.80;;;;;;;1.15;55.89;98960.50;4916374;29;20150;-62
2021/01/31 13:10:49;;;;;;;14.65;7.35;;;;;;;1.12;56.32;98951.06;4913563;29;20050;-58
2021/01/31 13:13:16;;;;;;;11.95;6.22;;;;;;;1.55;57.44;98956.34;4916006;29;20043;-60
2021/01/31 13:15:43;;;;;;;14.13;5.68;;;;;;;1.84;58.15;98948.22;4912685;29;20056;-59
2021/01/31 13:18:10;;;;;;;12.77;6.50;;;;;;;1.41;54.47;98950.09;4911446;29;20044;-58
2021/01/31 13:20:36;;;;;;;13.65;6.22;;;;;;;1.74;60.05;98955.69;4909928;29;20071;-58
2021/01/31 13:23:01;;;;;;;12.60;6.28;;;;;;;1.48;56.65;98951.00;4925818;29;20071;-58
2021/01/31 13:25:27;;;;;;;14.82;7.22;;;;;;;1.25;55.98;98942.38;4926686;29;20048;-59
2021/01/31 13:27:55;;;;;;;11.70;5.93;;;;;;;1.38;55.46;98951.31;4928326;29;20095;-60
2021/01/31 13:30:24;;;;;;;11.85;6.30;;;;;;;1.15;57.85;98952.53;4927748;29;20051;-62
2021/01/31 13:32:50;;;;;;;11.75;5.78;;;;;;;0.93;57.05;98957.78;4909038;29;20550;-60
2021/01/31 13:35:19;;;;;;;11.50;5.75;;;;;;;1.37;57.67;98940.84;4927104;29;20103;-58
2021/01/31 13:37:45;;;;;;;9.57;5.63;;;;;;;2.00;60.86;98939.91;4924798;29;20074;-60
2021/01/31 13:40:13;;;;;;;13.10;6.28;;;;;;;2.11;54.03;98936.69;4907655;29;20068;-59
2021/01/31 13:42:39;;;;;;;12.85;6.15;;;;;;;2.32;64.64;98937.59;4906031;29;20110;-58
2021/01/31 13:45:06;;;;;;;12.68;6.38;;;;;;;1.71;54.34;98932.13;4896041;29;20067;-59
2021/01/31 13:47:32;;;;;;;12.07;6.40;;;;;;;1.95;55.14;98931.69;4914266;29;20653;-58
2021/01/31 13:49:58;;;;;;;15.25;6.97;;;;;;;1.70;57.35;98936.63;4913370;29;20413;-58
2021/01/31 13:52:24;;;;;;;15.95;6.60;;;;;;;2.79;64.33;98932.28;4928461;29;20050;-58
2021/01/31 13:54:50;;;;;;;11.85;6.10;;;;;;;1.56;53.82;98931.38;4912147;29;20047;-59
2021/01/31 13:57:20;;;;;;;13.40;6.55;;;;;;;1.71;54.53;98930.28;4914516;29;20420;-59
2021/01/31 13:59:46;;;;;;;11.75;6.28;;;;;;;2.13;65.17;98925.81;4915126;29;20035;-58
2021/01/31 14:02:12;;;;;;;9.88;5.93;;;;;;;2.58;54.69;98919.06;4913578;29;20048;-58
2021/01/31 14:04:38;;;;;;;13.45;6.13;;;;;;;2.27;59.17;98924.06;4913382;29;20043;-59
2021/01/31 14:07:05;;;;;;;12.73;6.72;;;;;;;2.79;54.02;98926.94;4944220;29;20043;-58
2021/01/31 14:09:32;;;;;;;11.20;6.07;;;;;;;3.55;65.70;98907.97;4912245;29;20055;-57
2021/01/31 14:11:59;;;;;;;11.35;6.40;;;;;;;2.00;63.84;98915.91;4947426;28;20413;-58
2021/01/31 14:14:24;;;;;;;12.85;5.93;;;;;;;1.20;56.21;98908.31;4933602;28;20042;-59
2021/01/31 14:16:50;;;;;;;13.73;6.25;;;;;;;0.87;54.52;98917.81;4933351;28;20623;-57
2021/01/31 14:19:17;;;;;;;13.15;6.88;;;;;;;2.31;69.07;98915.44;4929538;28;20039;-58
2021/01/31 14:21:46;;;;;;;13.02;6.72;;;;;;;1.84;55.92;98908.22;4962259;28;20141;-58
2021/01/31 14:24:13;;;;;;;12.38;6.13;;;;;;;1.27;57.07;98906.53;4929705;29;20047;-57
2021/01/31 14:26:39;;;;;;;13.30;6.47;;;;;;;0.95;56.04;98915.03;4931790;28;20107;-58
2021/01/31 14:29:05;;;;;;;11.25;5.57;;;;;;;1.67;58.95;98915.69;4946928;28;20047;-59
2021/01/31 14:31:31;;;;;;;12.25;6.47;;;;;;;0.98;55.69;98896.03;4949083;28;20043;-58
2021/01/31 14:33:58;;;;;;;14.63;6.32;;;;;;;0.68;56.75;98908.63;4933315;28;20042;-59
2021/01/31 14:36:24;;;;;;;12.90;6.25;;;;;;;0.43;56.36;98892.19;4948857;28;20260;-59
2021/01/31 14:38:50;;;;;;;12.60;6.88;;;;;;;0.33;56.91;98899.63;4945780;28;20138;-59
2021/01/31 14:41:16;;;;;;;14.68;7.47;;;;;;;0.24;57.80;98895.41;4931126;29;20039;-58
2021/01/31 14:43:42;;;;;;;14.57;7.43;;;;;;;0.45;57.57;98895.47;4930593;29;20558;-59
2021/01/31 14:46:08;;;;;;;13.05;6.63;;;;;;;0.45;57.41;98894.66;4944810;29;20142;-58
2021/01/31 14:48:34;;;;;;;11.65;6.10;;;;;;;0.31;56.57;98902.47;4929478;29;20142;-59
2021/01/31 14:51:00;;;;;;;13.50;6.50;;;;;;;0.19;60.18;98897.81;4929292;29;20070;-58
2021/01/31 14:53:26;;;;;;;12.15;6.78;;;;;;;0.11;57.65;98901.41;4936842;29;20309;-58
2021/01/31 14:55:52;;;;;;;12.70;7.05;;;;;;;0.11;58.06;98897.91;4913610;29;20043;-58
2021/01/31 14:58:18;;;;;;;14.77;6.78;;;;;;;0.28;58.58;98894.03;4912855;29;20071;-57
2021/01/31 15:00:44;;;;;;;13.98;7.47;;;;;;;0.28;59.19;98892.19;4927514;29;20043;-58
2021/01/31 15:03:11;;;;;;;15.65;7.80;;;;;;;0.91;72.20;98885.34;4929372;29;20046;-59
2021/01/31 15:05:43;;;;;;;14.77;7.80;;;;;;;-0.19;58.18;98887.28;4913360;29;20039;-59
2021/01/31 15:08:09;;;;;;;15.30;7.90;;;;;;;-0.38;58.88;98879.84;4913282;29;20603;-59
2021/01/31 15:10:35;;;;;;;14.23;7.70;;;;;;;-0.40;60.37;98884.50;4909328;29;20043;-59
2021/01/31 15:13:02;;;;;;;16.45;8.68;;;;;;;-0.45;60.28;98886.88;4922039;28;20065;-59
2021/01/31 15:15:29;;;;;;;12.98;7.32;;;;;;;-0.34;59.29;98882.94;4930312;28;20038;-59
2021/01/31 15:17:55;;;;;;;13.68;7.05;;;;;;;-0.52;59.84;98884.13;4930392;28;20040;-58
2021/01/31 15:20:25;;;;;;;15.65;8.02;;;;;;;-0.39;62.01;98884.34;4952357;28;20122;-58
2021/01/31 15:22:51;;;;;;;15.45;7.13;;;;;;;-0.27;60.08;98879.41;4909830;28;20114;-58
2021/01/31 15:25:18;;;;;;;14.50;7.15;;;;;;;0.97;69.71;98878.44;4928876;29;20122;-58
2021/01/31 15:27:44;;;;;;;14.32;7.53;;;;;;;0.91;71.44;98873.88;4908074;29;20039;-58
2021/01/31 15:30:15;;;;;;;15.23;7.40;;;;;;;0.40;65.85;98884.56;4928645;28;20047;-58
2021/01/31 15:32:42;;;;;;;13.57;7.38;;;;;;;-0.23;59.37;98877.22;4903592;29;20103;-58
2021/01/31 15:35:10;;;;;;;14.68;7.68;;;;;;;-0.24;61.05;98881.69;4901743;29;20109;-58
2021/01/31 15:37:36;;;;;;;17.60;7.95;;;;;;;0.57;77.40;98883.34;4926168;29;20043;-58
2021/01/31 15:40:02;;;;;;;16.50;7.90;;;;;;;0.56;73.01;98892.34;4927409;29;20517;-58
2021/01/31 15:42:28;;;;;;;16.88;9.00;;;;;;;-0.59;60.24;98890.34;4944286;28;20257;-57
2021/01/31 15:44:54;;;;;;;14.05;7.13;;;;;;;-0.59;61.62;98885.03;4949752;28;20042;-58
2021/01/31 15:47:20;;;;;;;13.45;7.60;;;;;;;-0.84;60.76;98887.09;4946896;28;20428;-57
2021/01/31 15:49:46;;;;;;;15.38;7.82;;;;;;;-0.33;62.16;98888.09;4931749;28;20432;-58
2021/01/31 15:52:14;;;;;;;13.77;7.20;;;;;;;-0.64;61.05;98882.09;4964541;28;20038;-58
2021/01/31 15:54:39;;;;;;;16.33;7.53;;;;;;;0.98;77.85;98877.41;4931256;28;20051;-60
2021/01/31 15:57:05;;;;;;;14.13;7.63;;;;;;;-0.34;60.34;98885.59;4931365;28;20043;-57
2021/01/31 15:59:31;;;;;;;16.63;7.57;;;;;;;-0.52;64.45;98896.59;4931637;28;20047;-59
2021/01/31 16:01:57;;;;;;;15.95;8.50;;;;;;;0.02;74.02;98885.72;4929023;28;20039;-58
2021/01/31 16:04:22;;;;;;;15.85;8.65;;;;;;;0.10;65.20;98885.63;4931187;28;20074;-58
2021/01/31 16:06:50;;;;;;;14.40;7.28;;;;;;;-0.57;61.55;98885.66;4930295;28;20030;-57
2021/01/31 16:09:16;;;;;;;14.80;7.22;;;;;;;0.71;73.76;98897.59;4928458;28;20046;-58
2021/01/31 16:11:42;;;;;;;16.90;8.30;;;;;;;1.09;65.40;98888.38;4927555;29;20045;-59
2021/01/31 16:14:08;;;;;;;17.73;8.52;;;;;;;-0.39;60.60;98884.34;4892609;29;20417;-60
2021/01/31 16:16:43;;;;;;;15.80;7.45;;;;;;;-0.73;60.46;98895.44;4890227;29;20363;-59
2021/01/31 16:19:10;;;;;;;15.05;8.18;;;;;;;-1.02;61.66;98889.19;4892029;29;20098;-58
2021/01/31 16:21:37;;;;;;;15.07;6.97;;;;;;;-0.20;68.39;98884.78;4893272;29;20130;-58
2021/01/31 16:24:03;;;;;;;17.67;8.90;;;;;;;-0.16;71.22;98891.41;4893266;29;20044;-58
2021/01/31 16:26:30;;;;;;;16.50;8.02;;;;;;;-0.32;62.35;98886.25;4906261;29;20044;-57
2021/01/31 16:28:56;;;;;;;15.27;8.48;;;;;;;-0.55;62.46;98881.00;4955690;28;20043;-58
2021/01/31 16:31:22;;;;;;;13.52;7.88;;;;;;;-1.17;62.87;98891.81;4945591;28;20526;-58
2021/01/31 16:33:48;;;;;;;50.20;25.92;;;;;;;-1.31;63.21;98879.31;4931603;28;20053;-57
2021/01/31 16:36:14;;;;;;;72.63;38.70;;;;;;;-1.19;63.59;98876.09;4926855;29;20047;-59
2021/01/31 16:38:41;;;;;;;22.90;15.80;;;;;;;-1.11;63.28;98869.88;4942077;28;20046;-58
2021/01/31 16:41:07;;;;;;;14.40;8.32;;;;;;;-1.41;62.40;98876.91;4943611;28;20047;-58
2021/01/31 16:43:34;;;;;;;13.88;7.13;;;;;;;-1.35;62.62;98876.19;4912001;28;20045;-57
2021/01/31 16:46:01;;;;;;;35.47;25.85;;;;;;;-1.46;63.65;98869.47;4926731;28;20091;-59
2021/01/31 16:48:31;;;;;;;15.00;8.30;;;;;;;-1.29;63.12;98867.53;4929028;28;20070;-57